πŸ“Š DonnΓ©es MΓ©tΓ©o - Bordeaux

Total mesures

14,520

TempΓ©rature moyenne

18.9Β°C

Temp. Min/Max

2.9Β° / 42.4Β°

HumiditΓ© moyenne

64.8%

Pression moyenne

1014.8 hPa
enregistrements
ID Date/Heure Temp (Β°C) HumiditΓ© (%) Pression (hPa) Tendance LuminositΓ© (lux) Situation
7020 10/05/2026 11:45 21.6 45.0 1,006.3 β†’ Stable 96,756 frais-stable
7019 10/05/2026 11:15 21.0 48.0 1,006.3 β†’ Stable 78,060 frais-stable
7018 10/05/2026 10:45 20.2 52.0 1,006.5 β†’ Stable 70,920 frais-stable
7017 10/05/2026 10:15 20.5 56.0 1,006.5 β†’ Stable 88,236 frais-stable
7016 10/05/2026 09:45 20.3 59.0 1,006.7 β†’ Stable 82,320 frais-stable
7015 10/05/2026 09:15 19.8 62.0 1,006.7 β†’ Stable 76,572 frais-stable
7014 10/05/2026 08:45 19.2 65.0 1,006.4 β†’ Stable 69,348 frais-stable
7013 10/05/2026 08:15 18.5 71.0 1,006.4 β†’ Stable 55,272 pluvieux-gris (approx.)
7012 10/05/2026 07:45 17.3 78.0 1,006.5 β†’ Stable 46,200 pluvieux-gris (approx.)
7011 10/05/2026 07:15 16.3 79.0 1,006.5 β†’ Stable 39,816 pluvieux-gris (approx.)
7010 10/05/2026 06:45 15.3 80.0 1,006.3 β†’ Stable 30,648 pluvieux-gris
7009 10/05/2026 06:15 14.4 82.0 1,006.3 β†’ Stable 17,964 pluvieux-gris
7008 10/05/2026 05:45 14.0 82.0 1,006.1 β†’ Stable 10,644 pluvieux-gris
7007 10/05/2026 05:15 13.9 80.0 1,006.1 β†’ Stable 2,496 pluvieux-gris
7006 10/05/2026 04:45 14.2 78.0 1,006.2 β†’ Stable 0 pluvieux-gris
7005 10/05/2026 04:15 14.5 76.0 1,006.2 β†’ Stable 0 pluvieux-gris
7004 10/05/2026 03:45 14.7 76.0 1,006.1 β†’ Stable 0 pluvieux-gris
7003 10/05/2026 03:15 14.8 78.0 1,006.3 β†’ Stable 0 pluvieux-gris
7002 10/05/2026 02:45 15.3 78.0 1,006.1 β†’ Stable 0 pluvieux-gris
7001 10/05/2026 02:15 15.9 76.0 1,006.1 β†’ Stable 0 pluvieux-gris
7000 10/05/2026 01:45 16.3 74.0 1,006.1 β†’ Stable 0 pluvieux-gris (approx.)
6999 10/05/2026 01:15 16.6 72.0 1,006.2 β†’ Stable 0 pluvieux-gris (approx.)
6998 10/05/2026 00:45 16.6 73.0 1,006.8 β†’ Stable 0 pluvieux-gris (approx.)
6997 10/05/2026 00:15 16.7 71.0 1,006.8 β†’ Stable 0 pluvieux-gris (approx.)
6996 09/05/2026 23:45 16.9 72.0 1,007.0 β†’ Stable 0 pluvieux-gris (approx.)
6995 09/05/2026 23:15 17.4 69.0 1,007.0 β†’ Stable 0 frais-stable
6994 09/05/2026 22:45 17.7 67.0 1,007.5 β†’ Stable 0 frais-stable
6993 09/05/2026 22:15 17.8 78.0 1,007.5 β†’ Stable 0 pluvieux-gris (approx.)
6992 09/05/2026 21:45 17.8 79.0 1,008.6 β†’ Stable 0 pluvieux-gris (approx.)
6991 09/05/2026 21:30 17.8 77.0 1,008.6 β†’ Stable 0 pluvieux-gris (approx.)
6990 09/05/2026 21:15 17.9 78.0 1,008.6 β†’ Stable 0 pluvieux-gris (approx.)
6989 09/05/2026 20:45 18.4 76.0 1,007.7 β†’ Stable 0 pluvieux-gris (approx.)
6988 09/05/2026 20:15 19.3 69.0 1,007.7 β†’ Stable 0 frais-stable
6987 09/05/2026 19:45 20.7 60.0 1,006.5 β†’ Stable 0 frais-stable
6986 09/05/2026 19:15 21.6 56.0 1,006.5 β†’ Stable 0 frais-stable
6985 09/05/2026 18:45 22.0 56.0 1,005.8 β†’ Stable 3,516 frais-stable
6984 09/05/2026 18:30 22.7 51.0 1,005.8 β†’ Stable 6,756 frais-stable
6983 09/05/2026 18:15 22.8 51.0 1,005.8 β†’ Stable 9,168 frais-stable
6982 09/05/2026 17:45 23.5 51.0 1,005.5 β†’ Stable 13,884 conditions-neutrales-ou-non-definies
6981 09/05/2026 17:15 24.1 49.0 1,005.5 β†’ Stable 29,076 confortablement-chaud (approx.)
6980 09/05/2026 16:45 24.2 49.0 1,005.7 β†’ Stable 38,328 confortablement-chaud (approx.)
6979 09/05/2026 16:15 24.2 49.0 1,005.7 β†’ Stable 47,412 confortablement-chaud (approx.)
6978 09/05/2026 15:45 24.0 50.0 1,005.8 β†’ Stable 53,616 confortablement-chaud (approx.)
6977 09/05/2026 15:15 24.2 50.0 1,005.8 β†’ Stable 56,856 confortablement-chaud (approx.)
6976 09/05/2026 14:45 24.1 51.0 1,006.3 β†’ Stable 61,848 confortablement-chaud (approx.)
6975 09/05/2026 14:15 24.1 51.0 1,006.3 β†’ Stable 68,616 confortablement-chaud (approx.)
6974 09/05/2026 13:45 23.9 51.0 1,007.1 β†’ Stable 72,588 confortablement-chaud (approx.)
6973 09/05/2026 13:15 23.5 51.0 1,007.1 β†’ Stable 72,504 confortablement-chaud (approx.)
6972 09/05/2026 12:45 23.5 51.0 1,007.7 β†’ Stable 78,144 confortablement-chaud (approx.)
6971 09/05/2026 12:15 23.4 51.0 1,007.7 β†’ Stable 96,672 confortablement-chaud (approx.)
6970 09/05/2026 11:45 23.2 52.0 1,008.1 β†’ Stable 101,112 confortablement-chaud (approx.)
6969 09/05/2026 11:15 22.8 54.0 1,008.1 β†’ Stable 101,112 frais-stable
6968 09/05/2026 10:45 21.9 58.0 1,008.7 β†’ Stable 99,072 frais-stable
6967 09/05/2026 10:15 21.1 62.0 1,008.7 β†’ Stable 92,868 frais-stable
6966 09/05/2026 09:45 20.1 65.0 1,009.0 β†’ Stable 86,856 frais-stable
6965 09/05/2026 09:15 18.9 70.0 1,009.0 β†’ Stable 78,240 conditions-neutrales-ou-non-definies
6964 09/05/2026 08:45 17.9 73.0 1,009.0 β†’ Stable 70,092 conditions-neutrales-ou-non-definies
6963 09/05/2026 08:15 17.5 74.0 1,009.0 β†’ Stable 60,648 pluvieux-gris (approx.)
6962 09/05/2026 07:45 16.9 76.0 1,009.3 β†’ Stable 51,576 pluvieux-gris (approx.)
6961 09/05/2026 07:15 16.1 79.0 1,009.3 β†’ Stable 35,832 pluvieux-gris (approx.)
6960 09/05/2026 06:45 15.4 82.0 1,009.2 β†’ Stable 26,856 pluvieux-gris
6959 09/05/2026 06:15 14.7 85.0 1,009.2 β†’ Stable 17,772 pluvieux-gris
6958 09/05/2026 05:45 14.0 88.0 1,009.1 β†’ Stable 10,464 pluvieux-gris
6957 09/05/2026 05:15 13.2 88.0 1,009.1 β†’ Stable 2,964 pluvieux-gris
6956 09/05/2026 04:45 13.1 86.0 1,009.2 β†’ Stable 0 pluvieux-gris
6955 09/05/2026 04:15 13.0 90.0 1,009.2 β†’ Stable 0 pluvieux-gris
6954 09/05/2026 03:45 13.3 90.0 1,009.3 β†’ Stable 0 pluvieux-gris
6953 09/05/2026 03:15 14.3 88.0 1,009.3 β†’ Stable 0 pluvieux-gris
6952 09/05/2026 02:45 14.7 88.0 1,009.4 β†’ Stable 0 pluvieux-gris
6951 09/05/2026 02:15 13.8 88.0 1,009.4 β†’ Stable 0 pluvieux-gris
6950 09/05/2026 01:45 14.2 88.0 1,009.8 β†’ Stable 0 pluvieux-gris
6949 09/05/2026 01:15 14.6 86.0 1,009.3 β†’ Stable 0 pluvieux-gris
6948 09/05/2026 00:45 14.7 85.0 1,010.0 β†’ Stable 0 pluvieux-gris
6947 09/05/2026 00:15 14.9 85.0 1,010.0 β†’ Stable 0 pluvieux-gris
6946 08/05/2026 23:45 15.6 81.0 1,009.0 β†’ Stable 0 pluvieux-gris
6945 08/05/2026 23:15 15.9 76.0 1,009.0 β†’ Stable 0 pluvieux-gris
6944 08/05/2026 22:45 16.7 70.0 1,009.5 β†’ Stable 0 pluvieux-gris (approx.)
6943 08/05/2026 22:15 16.2 82.0 1,009.5 β†’ Stable 0 pluvieux-gris (approx.)
6942 08/05/2026 21:45 16.4 82.0 1,009.7 β†’ Stable 0 pluvieux-gris (approx.)
6941 08/05/2026 21:15 16.8 77.0 1,009.7 β†’ Stable 0 pluvieux-gris (approx.)
6940 08/05/2026 20:45 17.9 72.0 1,008.7 β†’ Stable 0 pluvieux-gris (approx.)
6939 08/05/2026 20:15 18.6 70.0 1,008.7 β†’ Stable 0 pluvieux-gris (approx.)
6938 08/05/2026 19:45 18.7 71.0 1,008.0 β†’ Stable 0 pluvieux-gris (approx.)
6937 08/05/2026 19:15 20.9 64.0 1,008.1 β†’ Stable 0 frais-stable
6936 08/05/2026 18:45 22.0 52.0 1,008.6 β†’ Stable 5,556 frais-stable
6935 08/05/2026 18:15 20.6 49.0 1,008.6 β†’ Stable 13,800 frais-stable
6934 08/05/2026 17:45 22.7 45.0 1,007.7 β†’ Stable 22,872 frais-stable
6933 08/05/2026 17:15 23.3 42.0 1,007.7 β†’ Stable 36,480 conditions-neutrales-ou-non-definies
6932 08/05/2026 16:45 23.5 40.0 1,007.4 β†’ Stable 46,668 conditions-neutrales-ou-non-definies
6931 08/05/2026 16:15 23.7 38.0 1,007.5 β†’ Stable 54,072 conditions-neutrales-ou-non-definies
6930 08/05/2026 15:45 23.8 39.0 1,007.7 β†’ Stable 61,848 conditions-neutrales-ou-non-definies
6929 08/05/2026 15:15 24.0 38.0 1,007.7 β†’ Stable 68,616 conditions-neutrales-ou-non-definies
6928 08/05/2026 14:45 24.0 39.0 1,007.9 β†’ Stable 75,648 confortablement-chaud (approx.)
6927 08/05/2026 14:15 24.3 41.0 1,007.9 β†’ Stable 83,052 confortablement-chaud
6926 08/05/2026 13:45 24.4 38.0 1,008.2 β†’ Stable 89,724 confortablement-chaud (approx.)
6925 08/05/2026 13:15 24.0 39.0 1,008.2 β†’ Stable 97,596 confortablement-chaud (approx.)
6924 08/05/2026 12:45 23.8 39.0 1,008.5 β†’ Stable 102,588 conditions-neutrales-ou-non-definies
6923 08/05/2026 12:15 23.7 40.0 1,008.5 β†’ Stable 104,628 confortablement-chaud (approx.)
6922 08/05/2026 11:45 23.3 42.0 1,009.1 β†’ Stable 104,352 confortablement-chaud (approx.)
6921 08/05/2026 11:15 22.8 45.0 1,009.1 β†’ Stable 102,684 frais-stable